sensor_id;sensor_type;location;lat;lon;timestamp;temperature;humidity
8114;DHT22;4099;52.684;9.918;2023-11-22T00:00:33;0.80;99.90
8114;DHT22;4099;52.684;9.918;2023-11-22T00:05:35;0.40;99.90
8114;DHT22;4099;52.684;9.918;2023-11-22T00:10:38;0.40;99.90
8114;DHT22;4099;52.684;9.918;2023-11-22T00:15:40;0.70;99.90
8114;DHT22;4099;52.684;9.918;2023-11-22T00:20:43;0.90;99.90
8114;DHT22;4099;52.684;9.918;2023-11-22T00:25:46;0.70;99.90
8114;DHT22;4099;52.684;9.918;2023-11-22T00:30:48;0.50;99.90
8114;DHT22;4099;52.684;9.918;2023-11-22T00:35:50;0.20;99.90
8114;DHT22;4099;52.684;9.918;2023-11-22T00:40:55;-0.10;99.90
8114;DHT22;4099;52.684;9.918;2023-11-22T00:45:57;-0.30;99.90
8114;DHT22;4099;52.684;9.918;2023-11-22T00:50:59;0.10;99.90
8114;DHT22;4099;52.684;9.918;2023-11-22T00:56:04;0.10;99.90
8114;DHT22;4099;52.684;9.918;2023-11-22T01:01:07;-0.10;99.90
8114;DHT22;4099;52.684;9.918;2023-11-22T01:06:08;-0.40;99.90
8114;DHT22;4099;52.684;9.918;2023-11-22T01:11:11;-0.50;99.90
8114;DHT22;4099;52.684;9.918;2023-11-22T01:16:13;-0.70;99.90
8114;DHT22;4099;52.684;9.918;2023-11-22T01:21:16;-0.70;99.90
8114;DHT22;4099;52.684;9.918;2023-11-22T01:26:19;-0.80;99.90
8114;DHT22;4099;52.684;9.918;2023-11-22T01:31:21;-0.60;99.90
8114;DHT22;4099;52.684;9.918;2023-11-22T01:36:23;-0.30;99.90
8114;DHT22;4099;52.684;9.918;2023-11-22T01:41:27;-0.40;99.90
8114;DHT22;4099;52.684;9.918;2023-11-22T01:46:31;-0.20;99.90
8114;DHT22;4099;52.684;9.918;2023-11-22T01:51:35;-0.40;99.90
8114;DHT22;4099;52.684;9.918;2023-11-22T01:56:39;-0.40;99.90
8114;DHT22;4099;52.684;9.918;2023-11-22T02:01:41;-0.30;99.90
8114;DHT22;4099;52.684;9.918;2023-11-22T02:06:44;-0.30;99.90
8114;DHT22;4099;52.684;9.918;2023-11-22T02:11:49;-0.50;99.90
8114;DHT22;4099;52.684;9.918;2023-11-22T02:16:50;-0.70;99.90
8114;DHT22;4099;52.684;9.918;2023-11-22T02:21:52;-0.70;99.90
8114;DHT22;4099;52.684;9.918;2023-11-22T02:26:55;-0.70;99.90
8114;DHT22;4099;52.684;9.918;2023-11-22T02:31:57;-0.50;99.90
8114;DHT22;4099;52.684;9.918;2023-11-22T02:36:59;-0.40;99.90
8114;DHT22;4099;52.684;9.918;2023-11-22T02:42:03;-0.50;99.90
8114;DHT22;4099;52.684;9.918;2023-11-22T02:47:05;-0.30;99.90
8114;DHT22;4099;52.684;9.918;2023-11-22T02:52:07;-0.30;99.90
8114;DHT22;4099;52.684;9.918;2023-11-22T02:57:11;-0.30;99.90
8114;DHT22;4099;52.684;9.918;2023-11-22T03:02:13;-0.10;99.90
8114;DHT22;4099;52.684;9.918;2023-11-22T03:07:15;0.00;99.90
8114;DHT22;4099;52.684;9.918;2023-11-22T03:12:19;0.10;99.90
8114;DHT22;4099;52.684;9.918;2023-11-22T03:17:21;0.30;99.90
8114;DHT22;4099;52.684;9.918;2023-11-22T03:22:24;0.30;99.90
8114;DHT22;4099;52.684;9.918;2023-11-22T03:27:27;0.40;99.90
8114;DHT22;4099;52.684;9.918;2023-11-22T03:32:29;0.40;99.90
8114;DHT22;4099;52.684;9.918;2023-11-22T03:37:32;0.60;99.90
8114;DHT22;4099;52.684;9.918;2023-11-22T03:42:36;0.60;99.90
8114;DHT22;4099;52.684;9.918;2023-11-22T03:47:39;0.70;99.90
8114;DHT22;4099;52.684;9.918;2023-11-22T03:52:41;0.90;99.90
8114;DHT22;4099;52.684;9.918;2023-11-22T03:57:45;1.20;99.90
8114;DHT22;4099;52.684;9.918;2023-11-22T04:02:47;1.20;99.90
8114;DHT22;4099;52.684;9.918;2023-11-22T04:07:48;1.00;99.90
8114;DHT22;4099;52.684;9.918;2023-11-22T04:12:53;0.70;99.90
8114;DHT22;4099;52.684;9.918;2023-11-22T04:17:55;0.50;99.90
8114;DHT22;4099;52.684;9.918;2023-11-22T04:22:57;0.30;99.90
8114;DHT22;4099;52.684;9.918;2023-11-22T04:28:00;0.30;99.90
8114;DHT22;4099;52.684;9.918;2023-11-22T04:33:02;0.20;99.90
8114;DHT22;4099;52.684;9.918;2023-11-22T04:38:04;0.50;99.90
8114;DHT22;4099;52.684;9.918;2023-11-22T04:43:07;0.50;99.90
8114;DHT22;4099;52.684;9.918;2023-11-22T04:48:08;0.10;99.90
8114;DHT22;4099;52.684;9.918;2023-11-22T04:53:11;-0.10;99.90
8114;DHT22;4099;52.684;9.918;2023-11-22T04:58:14;-0.10;99.90
8114;DHT22;4099;52.684;9.918;2023-11-22T05:03:15;0.00;99.90
8114;DHT22;4099;52.684;9.918;2023-11-22T05:08:17;-0.10;99.90
8114;DHT22;4099;52.684;9.918;2023-11-22T05:13:20;-0.40;99.90
8114;DHT22;4099;52.684;9.918;2023-11-22T05:18:22;-0.40;99.90
8114;DHT22;4099;52.684;9.918;2023-11-22T05:23:24;-0.50;99.90
8114;DHT22;4099;52.684;9.918;2023-11-22T05:28:27;-0.60;99.90
8114;DHT22;4099;52.684;9.918;2023-11-22T05:33:29;-0.70;99.90
8114;DHT22;4099;52.684;9.918;2023-11-22T05:38:32;-0.80;99.90
8114;DHT22;4099;52.684;9.918;2023-11-22T05:43:36;-0.90;99.90
8114;DHT22;4099;52.684;9.918;2023-11-22T05:48:38;-1.00;99.90
8114;DHT22;4099;52.684;9.918;2023-11-22T05:53:40;-1.20;99.90
8114;DHT22;4099;52.684;9.918;2023-11-22T05:58:43;-1.10;99.90
8114;DHT22;4099;52.684;9.918;2023-11-22T06:03:45;-1.00;99.90
8114;DHT22;4099;52.684;9.918;2023-11-22T06:08:47;-1.20;99.90
8114;DHT22;4099;52.684;9.918;2023-11-22T06:13:50;-1.20;99.90
8114;DHT22;4099;52.684;9.918;2023-11-22T06:18:52;-1.30;99.90
8114;DHT22;4099;52.684;9.918;2023-11-22T06:23:57;-1.40;99.90
8114;DHT22;4099;52.684;9.918;2023-11-22T06:29:00;-1.40;99.90
8114;DHT22;4099;52.684;9.918;2023-11-22T06:34:03;-1.30;99.90
8114;DHT22;4099;52.684;9.918;2023-11-22T06:39:05;-0.90;99.90
8114;DHT22;4099;52.684;9.918;2023-11-22T06:44:11;-0.90;99.90
8114;DHT22;4099;52.684;9.918;2023-11-22T06:49:13;-0.90;99.90
8114;DHT22;4099;52.684;9.918;2023-11-22T06:54:15;-0.70;99.90
8114;DHT22;4099;52.684;9.918;2023-11-22T06:59:18;-0.70;99.90
8114;DHT22;4099;52.684;9.918;2023-11-22T07:04:20;-0.70;99.90
8114;DHT22;4099;52.684;9.918;2023-11-22T07:09:23;-0.80;99.90
8114;DHT22;4099;52.684;9.918;2023-11-22T07:14:26;-0.70;99.90
8114;DHT22;4099;52.684;9.918;2023-11-22T07:19:29;-0.90;99.90
8114;DHT22;4099;52.684;9.918;2023-11-22T07:24:31;-1.00;99.90
8114;DHT22;4099;52.684;9.918;2023-11-22T07:29:36;-1.00;99.90
8114;DHT22;4099;52.684;9.918;2023-11-22T07:34:38;-0.90;99.90
8114;DHT22;4099;52.684;9.918;2023-11-22T07:39:41;-0.90;99.90
8114;DHT22;4099;52.684;9.918;2023-11-22T07:44:44;-0.80;99.90
8114;DHT22;4099;52.684;9.918;2023-11-22T07:49:46;-0.60;99.90
8114;DHT22;4099;52.684;9.918;2023-11-22T07:54:49;-0.20;99.90
8114;DHT22;4099;52.684;9.918;2023-11-22T07:59:54;0.10;99.90
8114;DHT22;4099;52.684;9.918;2023-11-22T08:04:57;0.20;99.90
8114;DHT22;4099;52.684;9.918;2023-11-22T08:10:02;0.20;99.90
8114;DHT22;4099;52.684;9.918;2023-11-22T08:15:11;0.10;99.90
8114;DHT22;4099;52.684;9.918;2023-11-22T08:20:21;0.00;99.90
8114;DHT22;4099;52.684;9.918;2023-11-22T08:25:28;0.00;99.90
8114;DHT22;4099;52.684;9.918;2023-11-22T08:30:36;0.10;99.90
8114;DHT22;4099;52.684;9.918;2023-11-22T08:35:46;0.20;99.90
8114;DHT22;4099;52.684;9.918;2023-11-22T08:40:53;0.40;99.90
8114;DHT22;4099;52.684;9.918;2023-11-22T08:46:07;0.90;99.90
8114;DHT22;4099;52.684;9.918;2023-11-22T08:51:23;1.20;99.90
8114;DHT22;4099;52.684;9.918;2023-11-22T08:56:34;1.30;99.90
8114;DHT22;4099;52.684;9.918;2023-11-22T09:01:39;1.40;99.90
8114;DHT22;4099;52.684;9.918;2023-11-22T09:06:46;1.50;99.90
8114;DHT22;4099;52.684;9.918;2023-11-22T09:11:50;1.30;99.90
8114;DHT22;4099;52.684;9.918;2023-11-22T09:16:58;1.40;99.90
8114;DHT22;4099;52.684;9.918;2023-11-22T09:22:11;1.70;99.90
8114;DHT22;4099;52.684;9.918;2023-11-22T09:27:22;1.70;99.90
8114;DHT22;4099;52.684;9.918;2023-11-22T09:32:29;1.90;99.90
8114;DHT22;4099;52.684;9.918;2023-11-22T09:37:37;1.90;99.90
8114;DHT22;4099;52.684;9.918;2023-11-22T09:42:41;2.10;99.90
8114;DHT22;4099;52.684;9.918;2023-11-22T09:47:52;2.30;99.90
8114;DHT22;4099;52.684;9.918;2023-11-22T09:53:11;2.40;99.90
8114;DHT22;4099;52.684;9.918;2023-11-22T09:58:20;2.50;99.90
8114;DHT22;4099;52.684;9.918;2023-11-22T10:03:26;2.40;99.90
8114;DHT22;4099;52.684;9.918;2023-11-22T10:08:29;2.40;99.90
8114;DHT22;4099;52.684;9.918;2023-11-22T10:13:37;2.70;99.90
8114;DHT22;4099;52.684;9.918;2023-11-22T10:18:43;2.90;99.90
8114;DHT22;4099;52.684;9.918;2023-11-22T10:23:47;2.80;99.90
8114;DHT22;4099;52.684;9.918;2023-11-22T10:28:53;2.90;99.90
8114;DHT22;4099;52.684;9.918;2023-11-22T10:34:06;3.00;99.90
8114;DHT22;4099;52.684;9.918;2023-11-22T10:39:23;3.10;99.90
8114;DHT22;4099;52.684;9.918;2023-11-22T10:44:29;3.10;99.90
8114;DHT22;4099;52.684;9.918;2023-11-22T10:49:39;3.10;99.90
8114;DHT22;4099;52.684;9.918;2023-11-22T10:54:50;3.00;99.90
8114;DHT22;4099;52.684;9.918;2023-11-22T11:00:08;3.00;99.90
8114;DHT22;4099;52.684;9.918;2023-11-22T11:05:21;3.00;99.90
8114;DHT22;4099;52.684;9.918;2023-11-22T11:10:31;3.10;99.90
8114;DHT22;4099;52.684;9.918;2023-11-22T11:15:35;3.10;99.90
8114;DHT22;4099;52.684;9.918;2023-11-22T11:21:07;3.20;99.90
8114;DHT22;4099;52.684;9.918;2023-11-22T11:26:23;3.30;99.90
8114;DHT22;4099;52.684;9.918;2023-11-22T11:31:38;3.20;99.90
8114;DHT22;4099;52.684;9.918;2023-11-22T11:37:07;3.30;99.90
8114;DHT22;4099;52.684;9.918;2023-11-22T11:42:14;3.50;99.90
8114;DHT22;4099;52.684;9.918;2023-11-22T11:47:24;3.70;99.90
8114;DHT22;4099;52.684;9.918;2023-11-22T11:52:38;3.60;99.90
8114;DHT22;4099;52.684;9.918;2023-11-22T11:57:48;4.00;99.90
8114;DHT22;4099;52.684;9.918;2023-11-22T12:02:57;4.10;99.90
8114;DHT22;4099;52.684;9.918;2023-11-22T12:08:03;4.00;99.90
8114;DHT22;4099;52.684;9.918;2023-11-22T12:13:13;4.00;99.90
8114;DHT22;4099;52.684;9.918;2023-11-22T12:18:42;4.00;99.90
8114;DHT22;4099;52.684;9.918;2023-11-22T12:23:58;4.10;99.90
8114;DHT22;4099;52.684;9.918;2023-11-22T12:29:14;3.90;99.90
8114;DHT22;4099;52.684;9.918;2023-11-22T12:34:26;4.00;99.90
8114;DHT22;4099;52.684;9.918;2023-11-22T12:39:38;4.10;99.90
8114;DHT22;4099;52.684;9.918;2023-11-22T12:44:48;4.10;99.90
8114;DHT22;4099;52.684;9.918;2023-11-22T12:49:58;3.90;99.90
8114;DHT22;4099;52.684;9.918;2023-11-22T12:55:18;3.80;99.90
8114;DHT22;4099;52.684;9.918;2023-11-22T13:00:29;3.80;99.90
8114;DHT22;4099;52.684;9.918;2023-11-22T13:05:34;3.70;99.90
8114;DHT22;4099;52.684;9.918;2023-11-22T13:10:46;3.60;99.90
8114;DHT22;4099;52.684;9.918;2023-11-22T13:15:55;3.50;99.90
8114;DHT22;4099;52.684;9.918;2023-11-22T13:21:10;3.40;99.90
8114;DHT22;4099;52.684;9.918;2023-11-22T13:26:23;3.30;99.90
8114;DHT22;4099;52.684;9.918;2023-11-22T13:31:29;3.20;99.90
8114;DHT22;4099;52.684;9.918;2023-11-22T13:36:42;3.30;99.90
8114;DHT22;4099;52.684;9.918;2023-11-22T13:41:55;3.30;99.90
8114;DHT22;4099;52.684;9.918;2023-11-22T13:46:57;3.20;99.90
8114;DHT22;4099;52.684;9.918;2023-11-22T13:52:05;3.20;99.90
8114;DHT22;4099;52.684;9.918;2023-11-22T13:57:11;3.10;99.90
8114;DHT22;4099;52.684;9.918;2023-11-22T14:02:15;3.10;99.90
8114;DHT22;4099;52.684;9.918;2023-11-22T14:07:28;2.70;99.90
8114;DHT22;4099;52.684;9.918;2023-11-22T14:12:36;2.70;99.90
8114;DHT22;4099;52.684;9.918;2023-11-22T14:17:49;2.50;99.90
8114;DHT22;4099;52.684;9.918;2023-11-22T14:23:01;2.60;99.90
8114;DHT22;4099;52.684;9.918;2023-11-22T14:28:23;2.70;99.90
8114;DHT22;4099;52.684;9.918;2023-11-22T14:33:46;2.70;99.90
8114;DHT22;4099;52.684;9.918;2023-11-22T14:38:52;2.70;99.90
8114;DHT22;4099;52.684;9.918;2023-11-22T14:44:04;2.60;99.90
8114;DHT22;4099;52.684;9.918;2023-11-22T14:49:07;2.60;99.90
8114;DHT22;4099;52.684;9.918;2023-11-22T14:54:17;2.60;99.90
8114;DHT22;4099;52.684;9.918;2023-11-22T14:59:21;2.50;99.90
8114;DHT22;4099;52.684;9.918;2023-11-22T15:04:27;2.50;99.90
8114;DHT22;4099;52.684;9.918;2023-11-22T15:09:38;2.40;99.90
8114;DHT22;4099;52.684;9.918;2023-11-22T15:14:48;2.40;99.90
8114;DHT22;4099;52.684;9.918;2023-11-22T15:19:55;2.30;99.90
8114;DHT22;4099;52.684;9.918;2023-11-22T15:25:01;2.30;99.90
8114;DHT22;4099;52.684;9.918;2023-11-22T15:30:20;2.30;99.90
8114;DHT22;4099;52.684;9.918;2023-11-22T15:35:23;2.20;99.90
8114;DHT22;4099;52.684;9.918;2023-11-22T15:40:27;2.20;99.90
8114;DHT22;4099;52.684;9.918;2023-11-22T15:45:35;2.10;99.90
8114;DHT22;4099;52.684;9.918;2023-11-22T15:50:43;2.10;99.90
8114;DHT22;4099;52.684;9.918;2023-11-22T15:55:57;2.10;99.90
8114;DHT22;4099;52.684;9.918;2023-11-22T16:01:02;2.10;99.90
8114;DHT22;4099;52.684;9.918;2023-11-22T16:06:08;2.10;99.90
8114;DHT22;4099;52.684;9.918;2023-11-22T16:11:14;2.10;99.90
8114;DHT22;4099;52.684;9.918;2023-11-22T16:16:24;2.10;99.90
8114;DHT22;4099;52.684;9.918;2023-11-22T16:21:28;2.10;99.90
8114;DHT22;4099;52.684;9.918;2023-11-22T16:26:34;2.10;99.90
8114;DHT22;4099;52.684;9.918;2023-11-22T16:31:41;2.00;99.90
8114;DHT22;4099;52.684;9.918;2023-11-22T16:36:53;2.10;99.90
8114;DHT22;4099;52.684;9.918;2023-11-22T16:41:59;2.10;99.90
8114;DHT22;4099;52.684;9.918;2023-11-22T16:47:06;1.90;99.90
8114;DHT22;4099;52.684;9.918;2023-11-22T16:52:14;1.90;99.90
8114;DHT22;4099;52.684;9.918;2023-11-22T16:57:22;1.70;99.90
8114;DHT22;4099;52.684;9.918;2023-11-22T17:02:27;1.60;99.90
8114;DHT22;4099;52.684;9.918;2023-11-22T17:07:31;1.90;99.90
8114;DHT22;4099;52.684;9.918;2023-11-22T17:12:43;1.90;99.90
8114;DHT22;4099;52.684;9.918;2023-11-22T17:17:53;2.00;99.90
8114;DHT22;4099;52.684;9.918;2023-11-22T17:22:56;1.90;99.90
8114;DHT22;4099;52.684;9.918;2023-11-22T17:28:02;1.90;99.90
8114;DHT22;4099;52.684;9.918;2023-11-22T17:33:13;1.80;99.90
8114;DHT22;4099;52.684;9.918;2023-11-22T17:38:27;1.90;99.90
8114;DHT22;4099;52.684;9.918;2023-11-22T17:43:36;1.90;99.90
8114;DHT22;4099;52.684;9.918;2023-11-22T17:48:45;1.90;99.90
8114;DHT22;4099;52.684;9.918;2023-11-22T17:54:02;2.00;99.90
8114;DHT22;4099;52.684;9.918;2023-11-22T17:59:19;2.00;99.90
8114;DHT22;4099;52.684;9.918;2023-11-22T18:04:27;2.00;99.90
8114;DHT22;4099;52.684;9.918;2023-11-22T18:09:30;2.00;99.90
8114;DHT22;4099;52.684;9.918;2023-11-22T18:14:57;2.10;99.90
8114;DHT22;4099;52.684;9.918;2023-11-22T18:20:08;2.20;99.90
8114;DHT22;4099;52.684;9.918;2023-11-22T18:25:22;2.00;99.90
8114;DHT22;4099;52.684;9.918;2023-11-22T18:30:25;2.10;99.90
8114;DHT22;4099;52.684;9.918;2023-11-22T18:35:41;2.10;99.90
8114;DHT22;4099;52.684;9.918;2023-11-22T18:40:45;2.20;99.90
8114;DHT22;4099;52.684;9.918;2023-11-22T18:45:48;2.20;99.90
8114;DHT22;4099;52.684;9.918;2023-11-22T18:50:53;2.30;99.90
8114;DHT22;4099;52.684;9.918;2023-11-22T18:55:56;2.20;99.90
8114;DHT22;4099;52.684;9.918;2023-11-22T19:01:00;2.40;99.90
8114;DHT22;4099;52.684;9.918;2023-11-22T19:06:07;2.50;99.90
8114;DHT22;4099;52.684;9.918;2023-11-22T19:11:12;2.40;99.90
8114;DHT22;4099;52.684;9.918;2023-11-22T19:16:16;2.40;99.90
8114;DHT22;4099;52.684;9.918;2023-11-22T19:21:24;2.40;99.90
8114;DHT22;4099;52.684;9.918;2023-11-22T19:26:27;2.30;99.90
8114;DHT22;4099;52.684;9.918;2023-11-22T19:31:34;2.40;99.90
8114;DHT22;4099;52.684;9.918;2023-11-22T19:36:41;2.40;99.90
8114;DHT22;4099;52.684;9.918;2023-11-22T19:41:47;2.30;99.90
8114;DHT22;4099;52.684;9.918;2023-11-22T19:46:55;2.50;99.90
8114;DHT22;4099;52.684;9.918;2023-11-22T19:52:00;2.60;99.90
8114;DHT22;4099;52.684;9.918;2023-11-22T19:57:05;2.50;99.90
8114;DHT22;4099;52.684;9.918;2023-11-22T20:02:19;2.50;99.90
8114;DHT22;4099;52.684;9.918;2023-11-22T20:07:26;2.50;99.90
8114;DHT22;4099;52.684;9.918;2023-11-22T20:12:30;2.60;99.90
8114;DHT22;4099;52.684;9.918;2023-11-22T20:17:33;2.60;99.90
8114;DHT22;4099;52.684;9.918;2023-11-22T20:22:39;2.70;99.90
8114;DHT22;4099;52.684;9.918;2023-11-22T20:27:41;2.70;99.90
8114;DHT22;4099;52.684;9.918;2023-11-22T20:32:44;2.90;99.90
8114;DHT22;4099;52.684;9.918;2023-11-22T20:37:50;2.80;99.90
8114;DHT22;4099;52.684;9.918;2023-11-22T20:42:53;2.80;99.90
8114;DHT22;4099;52.684;9.918;2023-11-22T20:47:59;3.00;99.90
8114;DHT22;4099;52.684;9.918;2023-11-22T20:53:07;3.00;99.90
8114;DHT22;4099;52.684;9.918;2023-11-22T20:58:10;3.00;99.90
8114;DHT22;4099;52.684;9.918;2023-11-22T21:03:21;3.10;99.90
8114;DHT22;4099;52.684;9.918;2023-11-22T21:08:25;3.20;99.90
8114;DHT22;4099;52.684;9.918;2023-11-22T21:13:30;3.30;99.90
8114;DHT22;4099;52.684;9.918;2023-11-22T21:18:36;3.30;99.90
8114;DHT22;4099;52.684;9.918;2023-11-22T21:23:40;3.40;99.90
8114;DHT22;4099;52.684;9.918;2023-11-22T21:28:45;3.40;99.90
8114;DHT22;4099;52.684;9.918;2023-11-22T21:33:53;3.40;99.90
8114;DHT22;4099;52.684;9.918;2023-11-22T21:39:08;3.40;99.90
8114;DHT22;4099;52.684;9.918;2023-11-22T21:44:20;3.60;99.90
8114;DHT22;4099;52.684;9.918;2023-11-22T21:49:27;3.60;99.90
8114;DHT22;4099;52.684;9.918;2023-11-22T21:54:34;3.70;99.90
8114;DHT22;4099;52.684;9.918;2023-11-22T21:59:36;3.80;99.90
8114;DHT22;4099;52.684;9.918;2023-11-22T22:04:45;3.90;99.90
8114;DHT22;4099;52.684;9.918;2023-11-22T22:09:56;3.90;99.90
8114;DHT22;4099;52.684;9.918;2023-11-22T22:15:08;4.10;99.90
8114;DHT22;4099;52.684;9.918;2023-11-22T22:20:26;4.30;99.90
8114;DHT22;4099;52.684;9.918;2023-11-22T22:25:38;4.50;99.90
8114;DHT22;4099;52.684;9.918;2023-11-22T22:30:59;4.60;99.90
8114;DHT22;4099;52.684;9.918;2023-11-22T22:36:17;4.70;99.90
8114;DHT22;4099;52.684;9.918;2023-11-22T22:41:28;4.80;99.90
8114;DHT22;4099;52.684;9.918;2023-11-22T22:46:31;4.80;99.90
8114;DHT22;4099;52.684;9.918;2023-11-22T22:51:38;5.00;99.90
8114;DHT22;4099;52.684;9.918;2023-11-22T22:56:47;5.00;99.90
8114;DHT22;4099;52.684;9.918;2023-11-22T23:01:52;5.00;99.90
8114;DHT22;4099;52.684;9.918;2023-11-22T23:07:09;5.10;99.90
8114;DHT22;4099;52.684;9.918;2023-11-22T23:12:25;5.20;99.90
8114;DHT22;4099;52.684;9.918;2023-11-22T23:17:38;5.10;99.90
8114;DHT22;4099;52.684;9.918;2023-11-22T23:22:44;5.10;99.90
8114;DHT22;4099;52.684;9.918;2023-11-22T23:27:58;5.20;99.90
8114;DHT22;4099;52.684;9.918;2023-11-22T23:33:10;5.20;99.90
8114;DHT22;4099;52.684;9.918;2023-11-22T23:38:24;5.30;99.90
8114;DHT22;4099;52.684;9.918;2023-11-22T23:43:37;5.30;99.90
8114;DHT22;4099;52.684;9.918;2023-11-22T23:48:42;5.30;99.90
8114;DHT22;4099;52.684;9.918;2023-11-22T23:53:44;5.40;99.90
8114;DHT22;4099;52.684;9.918;2023-11-22T23:58:51;5.40;99.90
